Chadstone Weather > Observations for 27/09/20

Select Day:



Observations
Time Temp Hum DP Wind Gust Dir Rain >9am Press
C % C kph kph mm hPa
00:00 10.1 89 8.4 7.7 20.9 NW 1.5 1025.7
00:10 10.1 89 8.4 7.1 24.5 W 1.5 1025.7
00:20 10.1 89 8.4 7.5 17.3 WNW 1.5 1025.7
00:30 10.1 90 8.5 6.9 15.8 WNW 1.5 1025.9
00:40 10.1 90 8.5 6.7 15.8 W 1.5 1025.9
00:50 10.1 90 8.5 6.6 14.8 NNW 1.5 1025.9
01:00 10.1 90 8.5 5.5 12.2 SW 1.5 1025.9
01:10 10.1 91 8.7 6.5 14.8 W 1.5 1025.9
01:20 10.1 91 8.7 4.9 12.2 W 1.5 1025.9
01:30 10.1 92 8.9 3.9 15.8 S 1.8 1026.0
01:40 9.9 93 8.8 4.0 9.7 SSW 1.8 1025.8
01:50 9.9 94 9.0 5.9 18.4 SW 1.8 1025.5
02:00 9.9 94 9.0 3.7 13.3 SE 1.8 1025.4
02:10 9.8 94 8.9 2.8 13.3 S 1.8 1025.4
02:20 9.8 94 8.9 2.5 8.6 NE 1.8 1025.4
02:30 9.8 94 8.9 2.5 8.6 NE 1.8 1025.6
02:40 9.8 94 8.9 2.5 8.6 NE 1.8 1025.8
02:50 9.8 94 8.9 2.5 8.6 NE 1.8 1025.7
03:00 9.8 94 8.9 2.5 8.6 NE 1.8 1025.9
03:10 9.8 94 8.9 2.5 8.6 NE 1.8 1026.0
03:20 9.8 94 8.9 2.5 8.6 NE 1.8 1026.1
03:30 9.8 94 8.9 2.5 8.6 NE 1.8 1026.1
03:40 9.8 94 8.9 2.5 8.6 NE 1.8 1026.2
03:50 9.8 94 8.9 2.5 8.6 NE 1.8 1026.3
04:00 9.8 94 8.9 2.5 8.6 NE 1.8 1026.4
04:10 9.8 94 8.9 2.5 8.6 NE 1.8 1026.5
04:20 9.8 94 8.9 2.5 8.6 NE 1.8 1026.7
04:30 9.8 94 8.9 2.5 8.6 NE 1.8 1027.0
04:40 9.8 94 8.9 2.5 8.6 NE 1.8 1027.0
04:50 9.8 94 8.9 2.5 8.6 NE 1.8 1027.1
05:00 9.8 94 8.9 2.5 8.6 NE 1.8 1027.3
05:10 9.8 94 8.9 2.5 8.6 NE 1.8 1027.4
05:20 9.8 94 8.9 2.5 8.6 NE 1.8 1027.5
05:30 9.8 94 8.9 2.5 8.6 NE 1.8 1027.8
05:40 9.8 94 8.9 2.5 8.6 NE 1.8 1028.0
05:50 9.8 94 8.9 2.5 8.6 NE 1.8 1028.0
06:00 8.1 89 6.4 0.0 0.0 N 3.3 1028.1
06:10 8.0 90 6.5 0.0 0.0 N 3.3 1028.7
06:20 8.0 90 6.5 0.0 0.0 N 3.3 1028.7
06:30 8.0 90 6.5 0.0 0.0 N 3.3 1028.9
06:40 8.0 92 6.8 0.0 0.0 N 3.3 1029.2
06:50 7.9 93 6.8 0.0 2.5 S 3.3 1029.3
07:00 8.0 93 6.9 1.1 6.1 SE 3.3 1029.5
07:10 8.1 94 7.2 3.2 8.6 SSE 3.3 1029.8
07:20 8.5 94 7.6 5.4 12.2 SSE 3.3 1029.9
07:30 8.7 93 7.6 6.7 14.8 SSE 3.3 1030.2
07:40 8.9 91 7.5 4.4 11.2 SSE 3.3 1030.3
07:50 9.1 88 7.2 2.9 7.2 SE 3.3 1030.6
08:00 9.3 86 7.1 1.0 5.0 SSE 3.3 1030.6
08:10 9.5 85 7.1 1.9 6.1 S 3.3 1030.9
08:20 9.8 84 7.2 6.0 13.3 S 3.3 1030.9
08:30 10.4 76 6.4 5.7 17.3 SSE 3.3 1031.0
08:40 10.7 75 6.5 4.8 14.8 SE 3.3 1031.1
08:50 10.8 73 6.2 5.4 18.4 SSE 3.3 1031.2
09:00 10.9 72 6.1 3.9 12.2 S 0.0 1031.4
09:10 11.1 70 5.8 3.1 9.7 SSE 0.0 1031.4
09:20 11.4 67 5.5 4.2 12.2 S 0.0 1031.5
09:30 11.8 66 5.7 6.7 17.3 SSE 0.0 1031.6
09:40 11.7 63 4.9 4.2 14.8 S 0.0 1031.7
09:50 11.9 61 4.6 4.2 15.8 SSW 0.0 1031.8
10:00 12.0 58 4.0 6.9 20.9 S 0.0 1031.8
10:10 12.1 57 3.8 6.8 13.3 S 0.0 1031.9
10:20 12.5 57 4.2 3.8 9.7 SSW 0.0 1031.8
10:30 12.5 56 4.0 4.2 14.8 SSW 0.0 1031.9
10:40 12.8 57 4.5 5.5 22.0 S 0.0 1031.8
10:50 12.7 59 4.9 4.1 20.9 SSW 0.0 1031.9
11:00 12.8 57 4.5 5.5 20.9 SSW 0.0 1031.9
11:10 12.6 52 3.0 5.0 17.3 SSW 0.0 1032.1
11:20 12.9 51 3.0 9.2 19.4 S 0.0 1032.1
11:30 13.4 51 3.5 4.9 12.2 WSW 0.0 1032.1
11:40 13.8 51 3.8 4.6 13.3 NW 0.0 1032.1
11:50 13.6 50 3.4 4.6 12.2 W 0.0 1032.1
12:00 13.2 55 4.4 4.3 20.9 WSW 0.0 1032.0
12:10 13.0 55 4.2 6.1 20.9 S 0.0 1032.2
12:20 13.2 55 4.4 5.2 17.3 SSW 0.0 1032.6
12:30 13.9 53 4.5 6.4 18.4 SW 0.0 1032.5
12:40 13.9 51 3.9 4.5 11.2 WSW 0.0 1032.6
12:50 13.6 50 3.4 4.9 17.3 SSW 0.0 1032.5
13:00 13.4 53 4.0 2.9 12.2 SSW 0.0 1032.5
13:10 14.1 50 3.8 6.0 14.8 SW 0.0 1032.6
13:20 14.1 48 3.3 4.6 12.2 SSW 0.0 1032.6
13:30 14.2 47 3.1 3.8 14.8 S 0.0 1032.6
13:40 14.0 48 3.2 4.9 14.8 WSW 0.0 1032.6
13:50 13.8 48 3.0 5.2 17.3 S 0.0 1032.4
14:00 13.7 50 3.5 3.8 11.2 SW 0.0 1032.4
14:10 13.9 50 3.7 4.5 17.3 SW 0.0 1032.3
14:20 14.1 48 3.3 6.2 17.3 SW 0.0 1032.5
14:30 13.7 49 3.2 6.3 14.8 SSW 0.0 1032.5
14:40 13.6 49 3.1 4.4 11.2 S 0.0 1032.7
14:50 13.6 50 3.4 5.6 17.3 SW 0.0 1032.8
15:00 13.7 48 2.9 6.3 14.8 SW 0.0 1032.8
15:10 13.6 47 2.5 4.1 12.2 SSW 0.0 1032.6
15:20 13.5 46 2.1 5.4 11.2 SSW 0.0 1032.9
15:30 13.4 47 2.3 3.1 12.2 SSW 0.0 1033.1
15:40 13.4 46 2.0 4.6 13.3 SSW 0.0 1033.0
15:50 13.4 45 1.7 4.4 12.2 S 0.0 1032.9
16:00 13.5 45 1.8 4.5 18.4 SSW 0.0 1033.0
16:10 13.4 44 1.4 3.9 13.3 SSE 0.0 1033.2
16:20 13.2 45 1.5 4.4 14.8 SSE 0.0 1033.4
16:30 13.1 45 1.4 2.9 7.2 S 0.0 1033.6
16:40 13.1 47 2.0 3.7 13.3 SSW 0.0 1033.8
16:50 12.9 48 2.2 3.8 13.3 SSW 0.0 1033.9
17:00 12.7 51 2.8 2.5 8.6 SSW 0.0 1034.1
17:10 12.6 52 3.0 3.4 12.2 SW 0.0 1034.1
17:20 12.4 52 2.8 4.5 14.8 WNW 0.0 1034.2
17:30 12.1 52 2.5 2.6 8.6 SSW 0.0 1034.3
17:40 12.0 53 2.7 3.3 11.2 SSE 0.0 1034.6
17:50 11.9 56 3.4 3.5 12.2 SSW 0.0 1034.7
18:00 11.7 58 3.7 3.2 9.7 S 0.0 1034.9
18:10 11.5 59 3.8 3.5 9.7 SSE 0.0 1034.9
18:20 11.4 62 4.4 4.4 13.3 S 0.0 1035.0
18:30 11.2 63 4.4 1.7 8.6 SSW 0.0 1035.1
18:40 10.9 65 4.6 0.9 8.6 SSW 0.0 1035.2
18:50 10.7 66 4.6 0.5 5.0 SW 0.0 1035.3
19:00 10.5 67 4.6 0.2 5.0 S 0.0 1035.4
19:10 10.4 68 4.8 0.0 1.1 S 0.0 1035.4
19:20 10.2 69 4.8 0.1 2.5 SE 0.0 1035.3
19:30 10.1 70 4.9 0.2 3.6 SSE 0.0 1035.4
19:40 9.7 72 4.9 1.2 5.0 SE 0.0 1035.3
19:50 9.5 74 5.1 0.4 2.5 SW 0.0 1035.4
20:00 9.3 74 4.9 0.1 2.5 SSW 0.0 1035.4
20:10 9.3 75 5.1 0.2 2.5 SE 0.0 1035.3
20:20 9.3 76 5.3 0.0 1.1 SE 0.0 1035.4
20:30 9.2 76 5.2 0.0 1.1 SE 0.0 1035.5
20:40 9.1 76 5.1 0.6 1.1 SE 0.0 1035.5
20:50 9.1 76 5.1 1.1 1.1 SE 0.0 1035.6
21:00 9.1 76 5.1 1.1 1.1 SE 0.0 1035.7
21:10 9.1 76 5.1 1.1 1.1 SE 0.0 1035.7
21:20 9.1 76 5.1 1.1 1.1 SE 0.0 1035.7
21:30 9.1 76 5.1 1.1 1.1 SE 0.0 1035.6
21:40 9.1 76 5.1 1.1 1.1 SE 0.0 1035.8
21:50 9.1 76 5.1 1.1 1.1 SE 0.0 1035.8
22:00 9.1 76 5.1 1.1 1.1 SE 0.0 1035.8
22:10 9.1 76 5.1 1.1 1.1 SE 0.0 1035.9
22:20 9.1 76 5.1 1.1 1.1 SE 0.0 1035.7
22:30 9.1 76 5.1 1.1 1.1 SE 0.0 1035.8
22:40 9.1 76 5.1 1.1 1.1 SE 0.0 1035.7
22:50 9.1 76 5.1 1.1 1.1 SE 0.0 1035.8
23:00 9.1 76 5.1 1.1 1.1 SE 0.0 1035.8
23:10 9.1 76 5.1 1.1 1.1 SE 0.0 1035.8
23:20 9.1 76 5.1 1.1 1.1 SE 0.0 1035.7
23:30 9.1 76 5.1 1.1 1.1 SE 0.0 1035.8
23:40 9.1 76 5.1 1.1 1.1 SE 0.0 1035.8
23:50 9.1 76 5.1 1.1 1.1 SE 0.0 1035.7